sensor_id;sensor_type;location;lat;lon;timestamp;P1;durP1;ratioP1;P2;durP2;ratioP2
54807;SDS011;40708;50.364;7.550;2023-12-04T00:00:54;15.93;;;12.03;;
54807;SDS011;40708;50.364;7.550;2023-12-04T00:03:20;15.97;;;11.27;;
54807;SDS011;40708;50.364;7.550;2023-12-04T00:05:45;17.63;;;12.23;;
54807;SDS011;40708;50.364;7.550;2023-12-04T00:08:10;16.00;;;11.83;;
54807;SDS011;40708;50.364;7.550;2023-12-04T00:10:36;15.57;;;11.33;;
54807;SDS011;40708;50.364;7.550;2023-12-04T00:13:01;15.60;;;11.83;;
54807;SDS011;40708;50.364;7.550;2023-12-04T00:15:26;14.63;;;10.73;;
54807;SDS011;40708;50.364;7.550;2023-12-04T00:17:51;15.63;;;11.80;;
54807;SDS011;40708;50.364;7.550;2023-12-04T00:20:16;14.63;;;10.83;;
54807;SDS011;40708;50.364;7.550;2023-12-04T00:22:42;17.17;;;13.10;;
54807;SDS011;40708;50.364;7.550;2023-12-04T00:25:07;14.43;;;10.63;;
54807;SDS011;40708;50.364;7.550;2023-12-04T00:27:32;15.37;;;12.27;;
54807;SDS011;40708;50.364;7.550;2023-12-04T00:29:57;17.20;;;12.63;;
54807;SDS011;40708;50.364;7.550;2023-12-04T00:32:23;16.00;;;11.80;;
54807;SDS011;40708;50.364;7.550;2023-12-04T00:34:48;17.40;;;12.43;;
54807;SDS011;40708;50.364;7.550;2023-12-04T00:37:13;20.77;;;12.30;;
54807;SDS011;40708;50.364;7.550;2023-12-04T00:39:39;16.23;;;11.63;;
54807;SDS011;40708;50.364;7.550;2023-12-04T00:42:04;16.33;;;11.57;;
54807;SDS011;40708;50.364;7.550;2023-12-04T00:44:29;15.30;;;11.47;;
54807;SDS011;40708;50.364;7.550;2023-12-04T00:46:54;17.33;;;12.13;;
54807;SDS011;40708;50.364;7.550;2023-12-04T00:49:19;15.80;;;11.87;;
54807;SDS011;40708;50.364;7.550;2023-12-04T00:51:44;16.53;;;11.53;;
54807;SDS011;40708;50.364;7.550;2023-12-04T00:54:10;16.30;;;12.87;;
54807;SDS011;40708;50.364;7.550;2023-12-04T00:56:37;16.03;;;11.63;;
54807;SDS011;40708;50.364;7.550;2023-12-04T00:59:02;15.47;;;11.13;;
54807;SDS011;40708;50.364;7.550;2023-12-04T01:01:28;18.63;;;13.27;;
54807;SDS011;40708;50.364;7.550;2023-12-04T01:03:53;15.33;;;11.87;;
54807;SDS011;40708;50.364;7.550;2023-12-04T01:06:22;16.23;;;12.07;;
54807;SDS011;40708;50.364;7.550;2023-12-04T01:08:50;15.83;;;12.37;;
54807;SDS011;40708;50.364;7.550;2023-12-04T01:11:16;17.00;;;12.20;;
54807;SDS011;40708;50.364;7.550;2023-12-04T01:13:41;17.20;;;12.63;;
54807;SDS011;40708;50.364;7.550;2023-12-04T01:16:07;15.83;;;12.60;;
54807;SDS011;40708;50.364;7.550;2023-12-04T01:18:32;17.23;;;13.37;;
54807;SDS011;40708;50.364;7.550;2023-12-04T01:20:57;16.75;;;12.98;;
54807;SDS011;40708;50.364;7.550;2023-12-04T01:23:22;19.07;;;13.53;;
54807;SDS011;40708;50.364;7.550;2023-12-04T01:25:47;20.03;;;14.10;;
54807;SDS011;40708;50.364;7.550;2023-12-04T01:28:13;18.10;;;13.17;;
54807;SDS011;40708;50.364;7.550;2023-12-04T01:30:39;18.90;;;13.30;;
54807;SDS011;40708;50.364;7.550;2023-12-04T01:33:04;18.20;;;13.37;;
54807;SDS011;40708;50.364;7.550;2023-12-04T01:35:29;18.00;;;13.33;;
54807;SDS011;40708;50.364;7.550;2023-12-04T01:37:54;17.67;;;13.63;;
54807;SDS011;40708;50.364;7.550;2023-12-04T01:40:19;17.00;;;12.87;;
54807;SDS011;40708;50.364;7.550;2023-12-04T01:42:45;19.35;;;13.98;;
54807;SDS011;40708;50.364;7.550;2023-12-04T01:45:10;20.00;;;13.60;;
54807;SDS011;40708;50.364;7.550;2023-12-04T01:47:35;17.90;;;13.33;;
54807;SDS011;40708;50.364;7.550;2023-12-04T01:50:00;21.37;;;14.87;;
54807;SDS011;40708;50.364;7.550;2023-12-04T01:52:26;18.70;;;14.47;;
54807;SDS011;40708;50.364;7.550;2023-12-04T01:54:51;18.17;;;13.73;;
54807;SDS011;40708;50.364;7.550;2023-12-04T01:57:16;17.83;;;13.77;;
54807;SDS011;40708;50.364;7.550;2023-12-04T01:59:41;19.70;;;14.53;;
54807;SDS011;40708;50.364;7.550;2023-12-04T02:02:07;19.90;;;13.70;;
54807;SDS011;40708;50.364;7.550;2023-12-04T02:04:32;18.50;;;13.73;;
54807;SDS011;40708;50.364;7.550;2023-12-04T02:06:57;19.97;;;14.53;;
54807;SDS011;40708;50.364;7.550;2023-12-04T02:09:23;23.93;;;16.17;;
54807;SDS011;40708;50.364;7.550;2023-12-04T02:11:48;19.87;;;14.57;;
54807;SDS011;40708;50.364;7.550;2023-12-04T02:14:13;21.35;;;13.70;;
54807;SDS011;40708;50.364;7.550;2023-12-04T02:16:40;18.27;;;13.77;;
54807;SDS011;40708;50.364;7.550;2023-12-04T02:19:07;18.57;;;13.20;;
54807;SDS011;40708;50.364;7.550;2023-12-04T02:21:32;17.17;;;13.10;;
54807;SDS011;40708;50.364;7.550;2023-12-04T02:23:57;16.83;;;12.47;;
54807;SDS011;40708;50.364;7.550;2023-12-04T02:26:23;18.17;;;13.90;;
54807;SDS011;40708;50.364;7.550;2023-12-04T02:28:52;18.70;;;12.37;;
54807;SDS011;40708;50.364;7.550;2023-12-04T02:31:19;19.20;;;14.07;;
54807;SDS011;40708;50.364;7.550;2023-12-04T02:33:46;19.43;;;13.57;;
54807;SDS011;40708;50.364;7.550;2023-12-04T02:36:12;18.70;;;13.77;;
54807;SDS011;40708;50.364;7.550;2023-12-04T02:38:38;18.53;;;14.00;;
54807;SDS011;40708;50.364;7.550;2023-12-04T02:41:04;20.60;;;13.83;;
54807;SDS011;40708;50.364;7.550;2023-12-04T02:43:29;20.30;;;13.53;;
54807;SDS011;40708;50.364;7.550;2023-12-04T02:45:54;18.63;;;14.23;;
54807;SDS011;40708;50.364;7.550;2023-12-04T02:48:19;20.43;;;14.30;;
54807;SDS011;40708;50.364;7.550;2023-12-04T02:50:44;17.67;;;13.70;;
54807;SDS011;40708;50.364;7.550;2023-12-04T02:53:10;18.77;;;13.93;;
54807;SDS011;40708;50.364;7.550;2023-12-04T02:55:35;21.03;;;14.90;;
54807;SDS011;40708;50.364;7.550;2023-12-04T02:58:00;19.37;;;15.20;;
54807;SDS011;40708;50.364;7.550;2023-12-04T03:00:25;20.27;;;15.57;;
54807;SDS011;40708;50.364;7.550;2023-12-04T03:02:51;23.17;;;15.83;;
54807;SDS011;40708;50.364;7.550;2023-12-04T03:05:16;20.73;;;16.03;;
54807;SDS011;40708;50.364;7.550;2023-12-04T03:07:41;20.63;;;14.30;;
54807;SDS011;40708;50.364;7.550;2023-12-04T03:10:06;20.43;;;14.30;;
54807;SDS011;40708;50.364;7.550;2023-12-04T03:12:32;20.70;;;15.27;;
54807;SDS011;40708;50.364;7.550;2023-12-04T03:14:57;18.83;;;14.53;;
54807;SDS011;40708;50.364;7.550;2023-12-04T03:17:22;22.53;;;15.53;;
54807;SDS011;40708;50.364;7.550;2023-12-04T03:19:47;19.77;;;14.20;;
54807;SDS011;40708;50.364;7.550;2023-12-04T03:22:13;20.10;;;14.73;;
54807;SDS011;40708;50.364;7.550;2023-12-04T03:24:38;22.03;;;15.43;;
54807;SDS011;40708;50.364;7.550;2023-12-04T03:27:03;19.17;;;15.07;;
54807;SDS011;40708;50.364;7.550;2023-12-04T03:29:29;20.77;;;15.07;;
54807;SDS011;40708;50.364;7.550;2023-12-04T03:31:54;20.73;;;15.30;;
54807;SDS011;40708;50.364;7.550;2023-12-04T03:34:19;22.37;;;16.20;;
54807;SDS011;40708;50.364;7.550;2023-12-04T03:36:44;21.53;;;15.43;;
54807;SDS011;40708;50.364;7.550;2023-12-04T03:39:09;22.27;;;16.02;;
54807;SDS011;40708;50.364;7.550;2023-12-04T03:41:34;21.55;;;16.35;;
54807;SDS011;40708;50.364;7.550;2023-12-04T03:43:59;21.43;;;16.00;;
54807;SDS011;40708;50.364;7.550;2023-12-04T03:46:25;20.40;;;15.07;;
54807;SDS011;40708;50.364;7.550;2023-12-04T03:48:50;25.20;;;16.83;;
54807;SDS011;40708;50.364;7.550;2023-12-04T03:51:16;25.03;;;17.20;;
54807;SDS011;40708;50.364;7.550;2023-12-04T03:53:41;21.87;;;15.70;;
54807;SDS011;40708;50.364;7.550;2023-12-04T03:56:07;20.67;;;15.87;;
54807;SDS011;40708;50.364;7.550;2023-12-04T03:58:32;21.53;;;16.23;;
54807;SDS011;40708;50.364;7.550;2023-12-04T04:00:57;22.33;;;15.70;;
54807;SDS011;40708;50.364;7.550;2023-12-04T04:03:22;25.92;;;17.35;;
54807;SDS011;40708;50.364;7.550;2023-12-04T04:05:47;20.87;;;16.30;;
54807;SDS011;40708;50.364;7.550;2023-12-04T04:08:13;23.30;;;15.83;;
54807;SDS011;40708;50.364;7.550;2023-12-04T04:10:38;25.27;;;17.53;;
54807;SDS011;40708;50.364;7.550;2023-12-04T04:13:03;24.50;;;17.47;;
54807;SDS011;40708;50.364;7.550;2023-12-04T04:15:28;23.83;;;17.33;;
54807;SDS011;40708;50.364;7.550;2023-12-04T04:17:53;23.07;;;16.77;;
54807;SDS011;40708;50.364;7.550;2023-12-04T04:20:19;23.57;;;16.87;;
54807;SDS011;40708;50.364;7.550;2023-12-04T04:22:44;23.57;;;16.77;;
54807;SDS011;40708;50.364;7.550;2023-12-04T04:25:11;25.43;;;18.07;;
54807;SDS011;40708;50.364;7.550;2023-12-04T04:27:37;23.07;;;16.80;;
54807;SDS011;40708;50.364;7.550;2023-12-04T04:30:02;24.60;;;17.37;;
54807;SDS011;40708;50.364;7.550;2023-12-04T04:32:27;25.43;;;18.00;;
54807;SDS011;40708;50.364;7.550;2023-12-04T04:34:52;21.80;;;16.33;;
54807;SDS011;40708;50.364;7.550;2023-12-04T04:37:19;22.33;;;17.00;;
54807;SDS011;40708;50.364;7.550;2023-12-04T04:39:44;23.97;;;17.43;;
54807;SDS011;40708;50.364;7.550;2023-12-04T04:42:09;26.13;;;17.80;;
54807;SDS011;40708;50.364;7.550;2023-12-04T04:44:34;24.38;;;17.48;;
54807;SDS011;40708;50.364;7.550;2023-12-04T04:46:59;24.25;;;17.60;;
54807;SDS011;40708;50.364;7.550;2023-12-04T04:49:25;22.73;;;17.50;;
54807;SDS011;40708;50.364;7.550;2023-12-04T04:51:50;25.50;;;17.90;;
54807;SDS011;40708;50.364;7.550;2023-12-04T04:54:15;27.40;;;19.10;;
54807;SDS011;40708;50.364;7.550;2023-12-04T04:56:40;23.03;;;17.20;;
54807;SDS011;40708;50.364;7.550;2023-12-04T04:59:05;24.00;;;17.77;;
54807;SDS011;40708;50.364;7.550;2023-12-04T05:01:30;23.80;;;17.37;;
54807;SDS011;40708;50.364;7.550;2023-12-04T05:03:56;23.50;;;17.37;;
54807;SDS011;40708;50.364;7.550;2023-12-04T05:06:21;23.70;;;17.13;;
54807;SDS011;40708;50.364;7.550;2023-12-04T05:08:47;23.17;;;16.47;;
54807;SDS011;40708;50.364;7.550;2023-12-04T05:11:14;21.83;;;16.37;;
54807;SDS011;40708;50.364;7.550;2023-12-04T05:13:39;24.80;;;17.23;;
54807;SDS011;40708;50.364;7.550;2023-12-04T05:16:05;24.77;;;16.90;;
54807;SDS011;40708;50.364;7.550;2023-12-04T05:18:30;22.03;;;16.43;;
54807;SDS011;40708;50.364;7.550;2023-12-04T05:20:55;22.73;;;16.33;;
54807;SDS011;40708;50.364;7.550;2023-12-04T05:23:20;24.43;;;17.00;;
54807;SDS011;40708;50.364;7.550;2023-12-04T05:25:45;20.95;;;15.90;;
54807;SDS011;40708;50.364;7.550;2023-12-04T05:28:10;20.92;;;15.57;;
54807;SDS011;40708;50.364;7.550;2023-12-04T05:30:36;20.67;;;15.60;;
54807;SDS011;40708;50.364;7.550;2023-12-04T05:33:01;22.43;;;15.80;;
54807;SDS011;40708;50.364;7.550;2023-12-04T05:35:27;22.50;;;16.67;;
54807;SDS011;40708;50.364;7.550;2023-12-04T05:37:52;21.10;;;15.80;;
54807;SDS011;40708;50.364;7.550;2023-12-04T05:40:17;23.53;;;16.60;;
54807;SDS011;40708;50.364;7.550;2023-12-04T05:42:42;18.97;;;14.87;;
54807;SDS011;40708;50.364;7.550;2023-12-04T05:45:08;21.57;;;15.73;;
54807;SDS011;40708;50.364;7.550;2023-12-04T05:47:33;21.60;;;15.93;;
54807;SDS011;40708;50.364;7.550;2023-12-04T05:49:59;20.70;;;15.03;;
54807;SDS011;40708;50.364;7.550;2023-12-04T05:52:24;21.57;;;16.13;;
54807;SDS011;40708;50.364;7.550;2023-12-04T05:54:49;22.13;;;16.50;;
54807;SDS011;40708;50.364;7.550;2023-12-04T05:57:15;20.10;;;14.82;;
54807;SDS011;40708;50.364;7.550;2023-12-04T05:59:41;22.93;;;15.90;;
54807;SDS011;40708;50.364;7.550;2023-12-04T06:02:06;20.27;;;15.87;;
54807;SDS011;40708;50.364;7.550;2023-12-04T06:04:32;22.27;;;15.10;;
54807;SDS011;40708;50.364;7.550;2023-12-04T06:06:57;21.33;;;15.57;;
54807;SDS011;40708;50.364;7.550;2023-12-04T06:09:22;20.43;;;14.90;;
54807;SDS011;40708;50.364;7.550;2023-12-04T06:11:47;22.03;;;15.70;;
54807;SDS011;40708;50.364;7.550;2023-12-04T06:14:12;20.25;;;15.85;;
54807;SDS011;40708;50.364;7.550;2023-12-04T06:16:38;19.87;;;14.87;;
54807;SDS011;40708;50.364;7.550;2023-12-04T06:19:03;18.37;;;13.40;;
54807;SDS011;40708;50.364;7.550;2023-12-04T06:21:31;21.77;;;15.40;;
54807;SDS011;40708;50.364;7.550;2023-12-04T06:23:56;20.03;;;13.97;;
54807;SDS011;40708;50.364;7.550;2023-12-04T06:26:22;20.03;;;14.97;;
54807;SDS011;40708;50.364;7.550;2023-12-04T06:28:47;20.83;;;15.47;;
54807;SDS011;40708;50.364;7.550;2023-12-04T06:31:13;19.23;;;14.57;;
54807;SDS011;40708;50.364;7.550;2023-12-04T06:33:38;17.53;;;13.57;;
54807;SDS011;40708;50.364;7.550;2023-12-04T06:36:04;19.93;;;14.60;;
54807;SDS011;40708;50.364;7.550;2023-12-04T06:38:31;20.13;;;13.97;;
54807;SDS011;40708;50.364;7.550;2023-12-04T06:40:56;21.43;;;15.20;;
54807;SDS011;40708;50.364;7.550;2023-12-04T06:43:22;21.03;;;14.30;;
54807;SDS011;40708;50.364;7.550;2023-12-04T06:45:47;19.13;;;14.90;;
54807;SDS011;40708;50.364;7.550;2023-12-04T06:48:13;18.87;;;14.40;;
54807;SDS011;40708;50.364;7.550;2023-12-04T06:50:38;17.90;;;13.43;;
54807;SDS011;40708;50.364;7.550;2023-12-04T06:53:03;18.97;;;14.43;;
54807;SDS011;40708;50.364;7.550;2023-12-04T06:55:29;17.50;;;12.63;;
54807;SDS011;40708;50.364;7.550;2023-12-04T06:57:54;14.90;;;12.70;;
54807;SDS011;40708;50.364;7.550;2023-12-04T07:00:19;17.37;;;12.33;;
54807;SDS011;40708;50.364;7.550;2023-12-04T07:02:44;17.87;;;12.90;;
54807;SDS011;40708;50.364;7.550;2023-12-04T07:05:09;15.93;;;11.53;;
54807;SDS011;40708;50.364;7.550;2023-12-04T07:07:35;15.03;;;11.37;;
54807;SDS011;40708;50.364;7.550;2023-12-04T07:10:00;17.07;;;13.10;;
54807;SDS011;40708;50.364;7.550;2023-12-04T07:12:25;17.07;;;12.70;;
54807;SDS011;40708;50.364;7.550;2023-12-04T07:14:50;17.20;;;12.90;;
54807;SDS011;40708;50.364;7.550;2023-12-04T07:17:15;19.73;;;13.90;;
54807;SDS011;40708;50.364;7.550;2023-12-04T07:19:41;15.87;;;12.23;;
54807;SDS011;40708;50.364;7.550;2023-12-04T07:22:07;15.53;;;12.20;;
54807;SDS011;40708;50.364;7.550;2023-12-04T07:24:32;16.47;;;11.70;;
54807;SDS011;40708;50.364;7.550;2023-12-04T07:26:58;17.17;;;12.17;;
54807;SDS011;40708;50.364;7.550;2023-12-04T07:29:23;17.00;;;12.00;;
54807;SDS011;40708;50.364;7.550;2023-12-04T07:31:48;17.67;;;12.80;;
54807;SDS011;40708;50.364;7.550;2023-12-04T07:34:13;17.03;;;12.30;;
54807;SDS011;40708;50.364;7.550;2023-12-04T07:36:38;17.17;;;12.27;;
54807;SDS011;40708;50.364;7.550;2023-12-04T07:39:03;15.83;;;12.10;;
54807;SDS011;40708;50.364;7.550;2023-12-04T07:41:31;16.33;;;12.50;;
54807;SDS011;40708;50.364;7.550;2023-12-04T07:43:56;15.67;;;12.13;;
54807;SDS011;40708;50.364;7.550;2023-12-04T07:46:21;15.93;;;11.67;;
54807;SDS011;40708;50.364;7.550;2023-12-04T07:48:47;13.43;;;11.00;;
54807;SDS011;40708;50.364;7.550;2023-12-04T07:51:12;14.67;;;10.83;;
54807;SDS011;40708;50.364;7.550;2023-12-04T07:53:37;15.10;;;11.70;;
54807;SDS011;40708;50.364;7.550;2023-12-04T07:56:02;13.47;;;11.03;;
54807;SDS011;40708;50.364;7.550;2023-12-04T07:58:30;13.60;;;10.80;;
54807;SDS011;40708;50.364;7.550;2023-12-04T08:00:56;14.27;;;10.53;;
54807;SDS011;40708;50.364;7.550;2023-12-04T08:03:21;15.80;;;12.07;;
54807;SDS011;40708;50.364;7.550;2023-12-04T08:05:48;14.37;;;10.93;;
54807;SDS011;40708;50.364;7.550;2023-12-04T08:08:13;15.83;;;11.43;;
54807;SDS011;40708;50.364;7.550;2023-12-04T08:10:39;14.63;;;11.17;;
54807;SDS011;40708;50.364;7.550;2023-12-04T08:13:05;14.47;;;10.27;;
54807;SDS011;40708;50.364;7.550;2023-12-04T08:15:30;14.30;;;10.17;;
54807;SDS011;40708;50.364;7.550;2023-12-04T08:17:55;13.77;;;10.67;;
54807;SDS011;40708;50.364;7.550;2023-12-04T08:20:22;13.63;;;10.30;;
54807;SDS011;40708;50.364;7.550;2023-12-04T08:22:48;14.23;;;11.00;;
54807;SDS011;40708;50.364;7.550;2023-12-04T08:25:14;12.97;;;10.30;;
54807;SDS011;40708;50.364;7.550;2023-12-04T08:27:39;13.70;;;9.67;;
54807;SDS011;40708;50.364;7.550;2023-12-04T08:30:04;15.67;;;10.63;;
54807;SDS011;40708;50.364;7.550;2023-12-04T08:32:30;12.37;;;10.23;;
54807;SDS011;40708;50.364;7.550;2023-12-04T08:34:55;12.07;;;9.30;;
54807;SDS011;40708;50.364;7.550;2023-12-04T08:37:20;11.73;;;9.67;;
54807;SDS011;40708;50.364;7.550;2023-12-04T08:39:46;12.77;;;9.97;;
54807;SDS011;40708;50.364;7.550;2023-12-04T08:42:11;14.17;;;10.13;;
54807;SDS011;40708;50.364;7.550;2023-12-04T08:44:36;13.33;;;10.20;;
54807;SDS011;40708;50.364;7.550;2023-12-04T08:47:02;13.97;;;10.47;;
54807;SDS011;40708;50.364;7.550;2023-12-04T08:49:27;14.00;;;9.93;;
54807;SDS011;40708;50.364;7.550;2023-12-04T08:51:52;15.03;;;10.03;;
54807;SDS011;40708;50.364;7.550;2023-12-04T08:54:17;12.23;;;9.50;;
54807;SDS011;40708;50.364;7.550;2023-12-04T08:56:43;12.30;;;9.93;;
54807;SDS011;40708;50.364;7.550;2023-12-04T08:59:09;13.67;;;9.57;;
54807;SDS011;40708;50.364;7.550;2023-12-04T09:01:34;12.80;;;9.80;;
54807;SDS011;40708;50.364;7.550;2023-12-04T09:03:59;15.03;;;10.27;;
54807;SDS011;40708;50.364;7.550;2023-12-04T09:06:24;12.23;;;9.33;;
54807;SDS011;40708;50.364;7.550;2023-12-04T09:08:50;12.93;;;9.70;;
54807;SDS011;40708;50.364;7.550;2023-12-04T09:11:15;11.30;;;8.73;;
54807;SDS011;40708;50.364;7.550;2023-12-04T09:13:40;12.17;;;9.57;;
54807;SDS011;40708;50.364;7.550;2023-12-04T09:16:06;14.57;;;9.80;;
54807;SDS011;40708;50.364;7.550;2023-12-04T09:18:31;11.63;;;9.33;;
54807;SDS011;40708;50.364;7.550;2023-12-04T09:20:56;12.50;;;9.57;;
54807;SDS011;40708;50.364;7.550;2023-12-04T09:23:21;16.67;;;12.20;;
54807;SDS011;40708;50.364;7.550;2023-12-04T09:25:47;14.97;;;9.53;;
54807;SDS011;40708;50.364;7.550;2023-12-04T09:28:12;13.90;;;9.93;;
54807;SDS011;40708;50.364;7.550;2023-12-04T09:30:37;13.53;;;9.67;;
54807;SDS011;40708;50.364;7.550;2023-12-04T09:33:02;11.30;;;9.00;;
54807;SDS011;40708;50.364;7.550;2023-12-04T09:35:27;12.60;;;9.67;;
54807;SDS011;40708;50.364;7.550;2023-12-04T09:37:53;14.07;;;10.80;;
54807;SDS011;40708;50.364;7.550;2023-12-04T09:40:19;15.77;;;10.77;;
54807;SDS011;40708;50.364;7.550;2023-12-04T09:42:44;12.20;;;10.10;;
54807;SDS011;40708;50.364;7.550;2023-12-04T09:45:09;14.13;;;10.70;;
54807;SDS011;40708;50.364;7.550;2023-12-04T09:47:35;13.20;;;10.13;;
54807;SDS011;40708;50.364;7.550;2023-12-04T09:50:01;13.60;;;9.83;;
54807;SDS011;40708;50.364;7.550;2023-12-04T09:52:27;13.33;;;10.10;;
54807;SDS011;40708;50.364;7.550;2023-12-04T09:54:53;12.23;;;9.73;;
54807;SDS011;40708;50.364;7.550;2023-12-04T09:57:18;13.70;;;10.63;;
54807;SDS011;40708;50.364;7.550;2023-12-04T09:59:43;12.87;;;9.17;;
54807;SDS011;40708;50.364;7.550;2023-12-04T10:02:09;13.80;;;10.93;;
54807;SDS011;40708;50.364;7.550;2023-12-04T10:04:34;14.00;;;9.90;;
54807;SDS011;40708;50.364;7.550;2023-12-04T10:07:00;14.77;;;9.80;;
54807;SDS011;40708;50.364;7.550;2023-12-04T10:09:26;15.53;;;10.27;;
54807;SDS011;40708;50.364;7.550;2023-12-04T10:11:51;14.20;;;10.70;;
54807;SDS011;40708;50.364;7.550;2023-12-04T10:14:20;13.50;;;10.43;;
54807;SDS011;40708;50.364;7.550;2023-12-04T10:16:46;12.60;;;9.20;;
54807;SDS011;40708;50.364;7.550;2023-12-04T10:19:21;12.90;;;9.80;;
54807;SDS011;40708;50.364;7.550;2023-12-04T10:21:49;13.97;;;9.83;;
54807;SDS011;40708;50.364;7.550;2023-12-04T10:24:30;11.87;;;9.53;;
54807;SDS011;40708;50.364;7.550;2023-12-04T10:26:56;10.97;;;8.93;;
54807;SDS011;40708;50.364;7.550;2023-12-04T10:29:22;12.00;;;9.23;;
54807;SDS011;40708;50.364;7.550;2023-12-04T10:31:49;12.57;;;9.40;;
54807;SDS011;40708;50.364;7.550;2023-12-04T10:34:15;12.83;;;9.47;;
54807;SDS011;40708;50.364;7.550;2023-12-04T10:36:40;12.87;;;9.97;;
54807;SDS011;40708;50.364;7.550;2023-12-04T10:39:06;12.70;;;9.30;;
54807;SDS011;40708;50.364;7.550;2023-12-04T10:41:31;14.43;;;10.60;;
54807;SDS011;40708;50.364;7.550;2023-12-04T10:43:56;13.03;;;10.20;;
54807;SDS011;40708;50.364;7.550;2023-12-04T10:46:22;12.60;;;10.17;;
54807;SDS011;40708;50.364;7.550;2023-12-04T10:48:48;14.27;;;10.23;;
54807;SDS011;40708;50.364;7.550;2023-12-04T10:51:15;14.60;;;11.17;;
54807;SDS011;40708;50.364;7.550;2023-12-04T10:53:40;14.80;;;10.77;;
54807;SDS011;40708;50.364;7.550;2023-12-04T10:56:09;14.80;;;10.50;;
54807;SDS011;40708;50.364;7.550;2023-12-04T10:58:35;15.47;;;11.40;;
54807;SDS011;40708;50.364;7.550;2023-12-04T11:01:01;16.97;;;12.70;;
54807;SDS011;40708;50.364;7.550;2023-12-04T11:03:28;15.97;;;12.57;;
54807;SDS011;40708;50.364;7.550;2023-12-04T11:05:58;17.87;;;13.57;;
54807;SDS011;40708;50.364;7.550;2023-12-04T11:08:24;18.03;;;12.40;;
54807;SDS011;40708;50.364;7.550;2023-12-04T11:10:51;18.73;;;12.70;;
54807;SDS011;40708;50.364;7.550;2023-12-04T11:13:21;18.07;;;12.53;;
54807;SDS011;40708;50.364;7.550;2023-12-04T11:15:47;17.33;;;11.53;;
54807;SDS011;40708;50.364;7.550;2023-12-04T11:18:15;15.20;;;12.00;;
54807;SDS011;40708;50.364;7.550;2023-12-04T11:20:59;18.80;;;13.43;;
54807;SDS011;40708;50.364;7.550;2023-12-04T11:23:27;18.67;;;11.93;;
54807;SDS011;40708;50.364;7.550;2023-12-04T11:25:53;19.60;;;13.43;;
54807;SDS011;40708;50.364;7.550;2023-12-04T11:28:18;17.70;;;12.27;;
54807;SDS011;40708;50.364;7.550;2023-12-04T11:30:44;16.03;;;12.47;;
54807;SDS011;40708;50.364;7.550;2023-12-04T11:33:10;17.10;;;13.20;;
54807;SDS011;40708;50.364;7.550;2023-12-04T11:35:37;17.97;;;12.90;;
54807;SDS011;40708;50.364;7.550;2023-12-04T11:38:04;15.67;;;12.10;;
54807;SDS011;40708;50.364;7.550;2023-12-04T11:40:29;20.23;;;13.47;;
54807;SDS011;40708;50.364;7.550;2023-12-04T11:42:54;19.00;;;12.70;;
54807;SDS011;40708;50.364;7.550;2023-12-04T11:45:20;19.00;;;12.53;;
54807;SDS011;40708;50.364;7.550;2023-12-04T11:47:55;16.73;;;12.70;;
54807;SDS011;40708;50.364;7.550;2023-12-04T11:50:20;16.67;;;12.47;;
54807;SDS011;40708;50.364;7.550;2023-12-04T11:52:46;17.87;;;12.67;;
54807;SDS011;40708;50.364;7.550;2023-12-04T11:55:11;16.20;;;11.73;;
54807;SDS011;40708;50.364;7.550;2023-12-04T11:57:40;15.90;;;12.10;;
54807;SDS011;40708;50.364;7.550;2023-12-04T12:00:09;16.63;;;12.97;;
54807;SDS011;40708;50.364;7.550;2023-12-04T12:02:35;17.50;;;12.57;;
54807;SDS011;40708;50.364;7.550;2023-12-04T12:05:01;15.83;;;12.63;;
54807;SDS011;40708;50.364;7.550;2023-12-04T12:07:27;16.60;;;11.07;;
54807;SDS011;40708;50.364;7.550;2023-12-04T12:09:52;12.33;;;10.13;;
54807;SDS011;40708;50.364;7.550;2023-12-04T12:12:17;14.57;;;10.90;;
54807;SDS011;40708;50.364;7.550;2023-12-04T12:14:43;16.27;;;11.27;;
54807;SDS011;40708;50.364;7.550;2023-12-04T12:17:09;17.40;;;13.13;;
54807;SDS011;40708;50.364;7.550;2023-12-04T12:19:34;15.87;;;11.17;;
54807;SDS011;40708;50.364;7.550;2023-12-04T12:21:59;15.23;;;12.13;;
54807;SDS011;40708;50.364;7.550;2023-12-04T12:24:25;14.97;;;11.10;;
54807;SDS011;40708;50.364;7.550;2023-12-04T12:26:51;16.23;;;11.60;;
54807;SDS011;40708;50.364;7.550;2023-12-04T12:29:16;16.53;;;11.43;;
54807;SDS011;40708;50.364;7.550;2023-12-04T12:31:42;17.83;;;11.97;;
54807;SDS011;40708;50.364;7.550;2023-12-04T12:34:07;17.20;;;12.57;;
54807;SDS011;40708;50.364;7.550;2023-12-04T12:36:32;16.63;;;12.18;;
54807;SDS011;40708;50.364;7.550;2023-12-04T12:38:58;16.80;;;12.43;;
54807;SDS011;40708;50.364;7.550;2023-12-04T12:41:25;15.23;;;11.43;;
54807;SDS011;40708;50.364;7.550;2023-12-04T12:43:53;15.20;;;12.00;;
54807;SDS011;40708;50.364;7.550;2023-12-04T12:46:18;16.57;;;12.30;;
54807;SDS011;40708;50.364;7.550;2023-12-04T12:48:44;14.77;;;11.67;;
54807;SDS011;40708;50.364;7.550;2023-12-04T12:51:11;15.97;;;10.90;;
54807;SDS011;40708;50.364;7.550;2023-12-04T12:53:37;16.17;;;11.80;;
54807;SDS011;40708;50.364;7.550;2023-12-04T12:56:03;15.70;;;11.83;;
54807;SDS011;40708;50.364;7.550;2023-12-04T12:58:28;14.60;;;11.93;;
54807;SDS011;40708;50.364;7.550;2023-12-04T13:00:53;12.87;;;9.80;;
54807;SDS011;40708;50.364;7.550;2023-12-04T13:03:19;14.70;;;10.57;;
54807;SDS011;40708;50.364;7.550;2023-12-04T13:05:45;14.17;;;11.23;;
54807;SDS011;40708;50.364;7.550;2023-12-04T13:08:10;14.03;;;11.40;;
54807;SDS011;40708;50.364;7.550;2023-12-04T13:10:40;12.73;;;9.83;;
54807;SDS011;40708;50.364;7.550;2023-12-04T13:13:09;12.53;;;9.80;;
54807;SDS011;40708;50.364;7.550;2023-12-04T13:15:34;12.37;;;10.67;;
54807;SDS011;40708;50.364;7.550;2023-12-04T13:18:00;12.63;;;10.37;;
54807;SDS011;40708;50.364;7.550;2023-12-04T13:20:25;12.77;;;10.13;;
54807;SDS011;40708;50.364;7.550;2023-12-04T13:22:50;12.63;;;9.33;;
54807;SDS011;40708;50.364;7.550;2023-12-04T13:25:15;12.40;;;9.70;;
54807;SDS011;40708;50.364;7.550;2023-12-04T13:27:41;13.67;;;10.47;;
54807;SDS011;40708;50.364;7.550;2023-12-04T13:30:07;14.37;;;10.27;;
54807;SDS011;40708;50.364;7.550;2023-12-04T13:32:36;11.30;;;9.23;;
54807;SDS011;40708;50.364;7.550;2023-12-04T13:35:01;11.17;;;8.80;;
54807;SDS011;40708;50.364;7.550;2023-12-04T13:37:26;11.73;;;9.70;;
54807;SDS011;40708;50.364;7.550;2023-12-04T13:39:53;12.00;;;9.60;;
54807;SDS011;40708;50.364;7.550;2023-12-04T13:42:23;12.40;;;9.50;;
54807;SDS011;40708;50.364;7.550;2023-12-04T13:45:07;12.10;;;9.27;;
54807;SDS011;40708;50.364;7.550;2023-12-04T13:47:34;12.57;;;10.27;;
54807;SDS011;40708;50.364;7.550;2023-12-04T13:49:59;12.90;;;10.10;;
54807;SDS011;40708;50.364;7.550;2023-12-04T13:52:25;11.35;;;8.93;;
54807;SDS011;40708;50.364;7.550;2023-12-04T13:54:52;12.33;;;9.63;;
54807;SDS011;40708;50.364;7.550;2023-12-04T13:57:19;10.63;;;9.07;;
54807;SDS011;40708;50.364;7.550;2023-12-04T13:59:58;11.57;;;8.67;;
54807;SDS011;40708;50.364;7.550;2023-12-04T14:02:23;10.70;;;9.13;;
54807;SDS011;40708;50.364;7.550;2023-12-04T14:04:48;9.97;;;8.70;;
54807;SDS011;40708;50.364;7.550;2023-12-04T14:07:14;13.00;;;10.13;;
54807;SDS011;40708;50.364;7.550;2023-12-04T14:09:39;10.43;;;9.13;;
54807;SDS011;40708;50.364;7.550;2023-12-04T14:12:05;12.87;;;9.90;;
54807;SDS011;40708;50.364;7.550;2023-12-04T14:14:30;10.33;;;8.37;;